Portada
METAR-TAF:

METAR-TAF

Aeroports :

Pakse, Laos

latitud: 15-08-02N, longitud: 105-46-55E, altitud: 107 m

Observació

L'informe es va fer fa 48 minuts, a les 01:00 UTC
Vent 6 kt del Sud-Est
Temperatura 30°C
Humitat 62%
Pressió 1011 hPa
Visibilitat: 3000 m
Núvols disperses a una alçada de 2300 ft
Núvols disperses a una alçada de 5000 ft
boirina

METAR: VLPS 300100Z 14006KT 3000 BR SCT023 SCT050 30/22 Q1011 NOSIG

Hora: 08:48 (01:48 UTC)

Pronòstic

L'informe es va fer fa 2 hores i 48 minuts, a les 23:00 UTC
Pronòstic vàlid del 30 a les 00 UTC al 30 a les 24 UTC
Vent 6 kt del Sud
Visibilitat: 7000 m
Escasses núvols a una alçada de 2300 ft
Núvols disperses a una alçada de 20000 ft

TAF: VLPS 292300Z 3000/3024 18006KT 7000 FEW023 SCT200

Observacions i pronòstics meteorològics de més de 4000 aeroports (METAR i TAF).

Les estacions disponibles són els punts grocs i vermells al mapa.

Posi el ratolí al punt desitjat per veure el nom de l'estació.

Feu clic per veure les observacions i els pronòstics meteorològics.

Per canviar el mapa: feu clic els botons verds amb una creu de color negre per apropar; al botó verd amb un guió per allunyar la imatge; o en les fletxes verdes per a mapes adjacents.


METAR-TAF: